Puvirnituq, Canada
Current Conditions -  °F | °C
As of 3:00 AM on Friday 24 Oct 2014 (Local Time) from CYPX Reporting Station
Overcast Overcast  
Wind Chill: 10°   Ceiling: 17000
Heat Index: 25°   Visibility: 15mi
Dew Point: 21°   Wind: 21mph
Humidity: 86%   Direction: 90°E
Pressure: 30.13"   Gusts: 26mph
Location:  60.03°N, 77.28°W
Report Text: CYPX 240700Z 09018G23KT 15SM OVC170 M04/M06 A3013 RMK AS8 SLP205
Loading
Personal Weather Stations






























Interactive Weather Map
Tropical Storm Tracking
New forecast layout! Learn more

10-Day Weather Forecast

Advertisements
Track Severe Weather on mobile